createdAt,value
2023-03-24T00:00:39.589Z,2.92
2023-03-24T00:05:42.884Z,3.45
2023-03-24T00:10:47.791Z,3.22
2023-03-24T00:15:51.736Z,3.35
2023-03-24T00:20:59.015Z,3.13
2023-03-24T00:26:12.557Z,3.50
2023-03-24T00:31:16.815Z,3.08
2023-03-24T00:36:23.601Z,3.15
2023-03-24T00:41:29.023Z,2.95
2023-03-24T00:46:34.264Z,2.83
2023-03-24T00:51:39.458Z,2.80
2023-03-24T00:56:44.024Z,2.80
2023-03-24T01:01:50.069Z,2.92
2023-03-24T01:06:55.612Z,2.80
2023-03-24T01:11:58.812Z,2.70
2023-03-24T01:17:02.049Z,2.70
2023-03-24T01:22:05.124Z,2.45
2023-03-24T01:27:08.011Z,2.42
2023-03-24T01:32:10.611Z,2.42
2023-03-24T01:37:13.514Z,2.55
2023-03-24T01:42:21.418Z,2.10
2023-03-24T01:47:24.408Z,2.33
2023-03-24T01:52:30.235Z,2.40
2023-03-24T01:57:35.667Z,2.40
2023-03-24T02:02:39.464Z,2.33
2023-03-24T02:08:01.637Z,2.47
2023-03-24T02:13:05.070Z,2.07
2023-03-24T02:18:08.416Z,2.35
2023-03-24T02:23:30.053Z,2.38
2023-03-24T02:28:36.119Z,2.33
2023-03-24T02:33:57.708Z,2.15
2023-03-24T02:39:12.907Z,2.50
2023-03-24T02:44:29.855Z,2.17
2023-03-24T02:49:56.434Z,2.17
2023-03-24T02:55:21.548Z,2.25
2023-03-24T03:00:34.099Z,2.20
2023-03-24T03:10:41.539Z,2.90
2023-03-24T03:15:46.138Z,2.70
2023-03-24T03:20:53.469Z,2.60
2023-03-24T03:26:05.295Z,2.30
2023-03-24T03:31:11.375Z,2.33
2023-03-24T03:36:26.981Z,2.72
2023-03-24T03:41:29.858Z,2.30
2023-03-24T03:51:44.122Z,2.60
2023-03-24T03:56:48.924Z,2.67
2023-03-24T04:01:56.096Z,2.92
2023-03-24T04:07:18.073Z,8.48
2023-03-24T04:12:37.643Z,2.92
2023-03-24T04:18:27.857Z,3.53
2023-03-24T04:23:42.411Z,3.08
2023-03-24T04:28:58.485Z,3.42
2023-03-24T04:34:07.988Z,3.40
2023-03-24T04:39:13.327Z,3.35
2023-03-24T04:44:23.055Z,3.00
2023-03-24T04:49:46.031Z,3.22
2023-03-24T04:54:49.342Z,3.00
2023-03-24T04:59:53.034Z,3.70
2023-03-24T05:04:56.924Z,3.35
2023-03-24T05:10:08.403Z,3.55
2023-03-24T05:15:18.839Z,4.00
2023-03-24T05:20:24.639Z,3.83
2023-03-24T05:25:28.123Z,3.72
2023-03-24T05:30:31.833Z,4.40
2023-03-24T05:35:46.287Z,4.25
2023-03-24T05:40:49.418Z,4.03
2023-03-24T05:45:54.928Z,4.25
2023-03-24T05:51:06.586Z,4.25
2023-03-24T05:56:12.338Z,3.95
2023-03-24T06:01:33.961Z,4.07
2023-03-24T06:06:51.854Z,3.75
2023-03-24T06:12:00.389Z,4.03
2023-03-24T06:17:03.600Z,3.63
2023-03-24T06:22:06.734Z,4.00
2023-03-24T06:27:14.690Z,3.78
2023-03-24T06:32:19.719Z,3.55
2023-03-24T06:37:23.440Z,3.45
2023-03-24T06:42:30.126Z,3.50
2023-03-24T06:47:34.007Z,3.50
2023-03-24T06:52:37.838Z,3.63
2023-03-24T06:57:41.255Z,4.05
2023-03-24T07:03:08.586Z,3.50
2023-03-24T07:08:36.298Z,4.00
2023-03-24T07:13:39.348Z,3.30
2023-03-24T07:18:44.294Z,3.22
2023-03-24T07:23:47.400Z,3.95
2023-03-24T07:28:56.344Z,5.07
2023-03-24T07:39:16.024Z,3.30
2023-03-24T07:44:19.170Z,3.10
2023-03-24T07:49:26.272Z,3.25
2023-03-24T07:54:44.959Z,3.35
2023-03-24T08:00:02.289Z,3.25
2023-03-24T08:05:22.830Z,3.10
2023-03-24T08:10:34.044Z,3.30
2023-03-24T08:15:38.227Z,3.33
2023-03-24T08:20:41.316Z,3.70
2023-03-24T08:25:44.562Z,3.88
2023-03-24T08:30:47.529Z,3.80
2023-03-24T08:35:52.011Z,3.90
2023-03-24T08:40:54.957Z,3.70
2023-03-24T08:45:58.445Z,3.53
2023-03-24T08:51:01.104Z,3.50
2023-03-24T08:56:03.986Z,3.78
2023-03-24T09:01:06.740Z,3.70
2023-03-24T09:06:15.005Z,3.90
2023-03-24T09:11:19.514Z,3.10
2023-03-24T09:16:24.199Z,3.88
2023-03-24T09:21:27.263Z,3.50
2023-03-24T09:26:30.689Z,3.22
2023-03-24T09:31:33.509Z,3.47
2023-03-24T09:36:36.410Z,3.60
2023-03-24T09:41:39.238Z,3.60
2023-03-24T09:46:45.980Z,3.72
2023-03-24T09:51:49.096Z,3.70
2023-03-24T09:56:52.496Z,3.38
2023-03-24T10:01:55.781Z,3.30
2023-03-24T10:07:10.769Z,3.70
2023-03-24T10:12:22.340Z,3.30
2023-03-24T10:17:27.934Z,3.63
2023-03-24T10:22:44.372Z,3.55
2023-03-24T10:27:47.243Z,3.28
2023-03-24T10:32:50.004Z,3.10
2023-03-24T10:37:53.347Z,2.78
2023-03-24T10:43:07.173Z,2.72
2023-03-24T10:48:13.616Z,2.47
2023-03-24T10:53:20.364Z,2.30
2023-03-24T10:58:26.057Z,2.53
2023-03-24T11:03:31.368Z,3.10
2023-03-24T11:08:36.536Z,3.10
2023-03-24T11:13:39.726Z,3.00
2023-03-24T11:19:03.003Z,2.75
2023-03-24T11:24:19.868Z,2.88
2023-03-24T11:29:24.700Z,2.90
2023-03-24T11:34:39.114Z,2.67
2023-03-24T11:39:41.945Z,2.47
2023-03-24T11:44:49.706Z,2.85
2023-03-24T11:50:10.714Z,3.00
2023-03-24T11:55:17.870Z,2.70
2023-03-24T12:00:42.101Z,2.40
2023-03-24T12:05:50.380Z,2.50
2023-03-24T12:11:07.361Z,2.03
2023-03-24T12:16:28.892Z,2.50
2023-03-24T12:21:52.892Z,2.30
2023-03-24T12:26:59.398Z,2.33
2023-03-24T12:32:05.320Z,2.40
2023-03-24T12:37:14.260Z,2.20
2023-03-24T12:42:18.177Z,2.70
2023-03-24T12:47:23.840Z,2.10
2023-03-24T12:52:39.151Z,1.95
2023-03-24T12:57:45.647Z,1.90
2023-03-24T13:02:59.387Z,1.90
2023-03-24T13:08:04.513Z,1.70
2023-03-24T13:13:16.345Z,2.00
2023-03-24T13:18:37.877Z,2.08
2023-03-24T13:23:57.727Z,2.30
2023-03-24T13:29:03.727Z,2.33
2023-03-24T13:34:11.331Z,2.10
2023-03-24T13:39:22.058Z,2.58
2023-03-24T13:44:28.879Z,4.30
2023-03-24T13:49:32.763Z,4.40
2023-03-24T13:54:41.244Z,5.57
2023-03-24T14:00:08.468Z,4.80
2023-03-24T14:05:24.337Z,5.85
2023-03-24T14:10:27.010Z,4.80
2023-03-24T14:15:41.514Z,4.13
2023-03-24T14:21:04.317Z,3.58
2023-03-24T14:26:27.152Z,3.03
2023-03-24T14:31:31.188Z,2.60
2023-03-24T14:36:35.531Z,2.90
2023-03-24T14:41:40.695Z,2.40
2023-03-24T14:46:52.281Z,2.45
2023-03-24T14:51:55.054Z,2.33
2023-03-24T14:56:58.343Z,2.05
2023-03-24T15:02:05.557Z,2.25
2023-03-24T15:07:14.174Z,1.90
2023-03-24T15:12:17.033Z,2.20
2023-03-24T15:17:24.268Z,2.13
2023-03-24T15:22:27.595Z,2.20
2023-03-24T15:27:32.154Z,1.80
2023-03-24T15:32:39.616Z,1.73
2023-03-24T15:37:48.638Z,2.03
2023-03-24T15:42:51.642Z,2.03
2023-03-24T15:47:54.757Z,4.18
2023-03-24T15:53:01.974Z,1.63
2023-03-24T15:58:23.512Z,1.70
2023-03-24T16:03:27.316Z,1.60
2023-03-24T16:08:39.430Z,1.60
2023-03-24T16:18:46.524Z,1.77
2023-03-24T16:23:50.778Z,1.60
2023-03-24T16:28:54.181Z,1.58
2023-03-24T16:33:58.025Z,1.48
2023-03-24T16:39:09.852Z,1.80
2023-03-24T16:44:12.766Z,2.60
2023-03-24T16:49:16.926Z,1.60
2023-03-24T16:54:21.452Z,1.80
2023-03-24T16:59:25.634Z,1.70
2023-03-24T17:04:34.110Z,2.08
2023-03-24T17:09:37.686Z,2.00
2023-03-24T17:14:41.307Z,2.05
2023-03-24T17:19:44.774Z,2.30
2023-03-24T17:24:51.796Z,2.25
2023-03-24T17:29:54.630Z,1.90
2023-03-24T17:34:57.637Z,2.10
2023-03-24T17:40:01.534Z,2.20
2023-03-24T17:45:05.410Z,2.20
2023-03-24T17:50:10.000Z,2.45
2023-03-24T17:55:14.754Z,2.10
2023-03-24T18:00:17.916Z,2.50
2023-03-24T18:05:20.838Z,2.70
2023-03-24T18:10:24.006Z,2.80
2023-03-24T18:15:26.956Z,3.17
2023-03-24T18:20:29.712Z,3.38
2023-03-24T18:25:32.670Z,3.70
2023-03-24T18:30:35.628Z,3.42
2023-03-24T18:35:38.385Z,3.33
2023-03-24T18:40:41.114Z,4.60
2023-03-24T18:45:44.033Z,6.03
2023-03-24T18:50:48.191Z,6.90
2023-03-24T18:55:51.397Z,8.82
2023-03-24T19:00:55.763Z,4.15
2023-03-24T19:06:00.598Z,4.85
2023-03-24T19:11:03.875Z,4.07
2023-03-24T19:16:09.252Z,4.45
2023-03-24T19:21:12.893Z,6.03
2023-03-24T19:26:20.486Z,3.88
2023-03-24T19:31:23.409Z,4.93
2023-03-24T19:36:26.678Z,4.18
2023-03-24T19:41:30.156Z,3.45
2023-03-24T19:46:33.191Z,2.75
2023-03-24T19:51:35.830Z,4.78
2023-03-24T19:56:38.929Z,4.30
2023-03-24T20:01:45.080Z,4.18
2023-03-24T20:06:48.053Z,4.00
2023-03-24T20:11:52.204Z,3.95
2023-03-24T20:16:55.047Z,4.03
2023-03-24T20:21:57.937Z,3.72
2023-03-24T20:27:00.978Z,3.78
2023-03-24T20:32:04.099Z,3.28
2023-03-24T20:37:07.399Z,2.88
2023-03-24T20:42:11.195Z,2.35
2023-03-24T20:47:14.239Z,2.55
2023-03-24T20:52:17.358Z,2.60
2023-03-24T20:57:20.714Z,2.60
2023-03-24T21:02:23.739Z,1.67
2023-03-24T21:07:27.048Z,1.80
2023-03-24T21:12:30.004Z,1.70
2023-03-24T21:17:33.029Z,1.88
2023-03-24T21:22:47.836Z,1.98
2023-03-24T21:27:51.377Z,1.98
2023-03-24T21:32:55.022Z,2.25
2023-03-24T21:37:58.186Z,2.25
2023-03-24T21:43:07.207Z,2.83
2023-03-24T21:48:10.839Z,2.75
2023-03-24T21:53:16.344Z,2.33
2023-03-24T21:58:19.667Z,2.20
2023-03-24T22:03:23.272Z,2.40
2023-03-24T22:08:30.774Z,2.42
2023-03-24T22:13:33.908Z,2.58
2023-03-24T22:18:36.571Z,3.10
2023-03-24T22:23:43.060Z,2.70
2023-03-24T22:28:45.969Z,3.00
2023-03-24T22:33:48.520Z,3.00
2023-03-24T22:38:51.462Z,3.20
2023-03-24T22:43:54.173Z,3.58
2023-03-24T22:48:56.727Z,3.47
2023-03-24T22:53:59.385Z,3.75
2023-03-24T22:59:01.987Z,3.30
2023-03-24T23:04:04.542Z,3.15
2023-03-24T23:09:07.352Z,3.33
2023-03-24T23:14:10.878Z,3.35
2023-03-24T23:19:13.644Z,3.25
2023-03-24T23:24:16.497Z,4.15
2023-03-24T23:29:19.287Z,3.28
2023-03-24T23:34:22.022Z,3.53
2023-03-24T23:39:24.780Z,3.00
2023-03-24T23:44:27.523Z,3.88
2023-03-24T23:49:30.144Z,3.95
2023-03-24T23:54:32.974Z,4.05
2023-03-24T23:59:36.602Z,3.45
